SWA1534 KPHX-KLAX
Flight info
| Callsign | SWA1534 |
|---|---|
| Flight time | 0h 53m |
| Altitude | 36000 |
| Route | KPHX/25R KEENS3 WLVRN DCT ESTWD HLYWD1 KLAX/24R |
| Aircraft | B737/M-SDE2E3FGHIRWXY/LB1 |
Departure
| Time | 2026-04-20 04:35 |
|---|---|
| Airport | Phoenix Sky Harbor International Airport (KPHX) |
Arrival
| Time | 2026-04-20 05:29 |
|---|---|
| Airport | Los Angeles International Airport (KLAX) |
| Time | Latitude | Longitude | Altitude | Speed | Heading |
|---|---|---|---|---|---|
| 2026-04-20 04:12 | 33.43352 | -111.99437 | 1123 ft | 0 kts | 12° |
| 2026-04-20 04:26 | 33.43340 | -111.99440 | 1115 ft | 4 kts | 12° |
| 2026-04-20 04:27 | 33.43315 | -111.99446 | 1119 ft | 3 kts | 12° |
| 2026-04-20 04:27 | 33.43292 | -111.99457 | 1113 ft | 4 kts | 50° |
| 2026-04-20 04:27 | 33.43283 | -111.99485 | 1117 ft | 3 kts | 89° |
| 2026-04-20 04:27 | 33.43283 | -111.99495 | 1117 ft | 0 kts | 90° |
| 2026-04-20 04:31 | 33.43283 | -111.99478 | 1120 ft | 5 kts | 90° |
| 2026-04-20 04:31 | 33.43283 | -111.99405 | 1123 ft | 12 kts | 90° |
| 2026-04-20 04:31 | 33.43282 | -111.99285 | 1121 ft | 15 kts | 91° |
| 2026-04-20 04:31 | 33.43210 | -111.99260 | 1123 ft | 13 kts | 216° |
| 2026-04-20 04:32 | 33.43199 | -111.99272 | 1119 ft | 0 kts | 224° |
| 2026-04-20 04:34 | 33.43193 | -111.99280 | 1120 ft | 5 kts | 224° |
| 2026-04-20 04:34 | 33.43144 | -111.99336 | 1117 ft | 14 kts | 224° |
| 2026-04-20 04:34 | 33.43104 | -111.99469 | 1122 ft | 25 kts | 269° |
| 2026-04-20 04:35 | 33.43104 | -111.99997 | 1123 ft | 103 kts | 270° |
| 2026-04-20 04:35 | 33.43100 | -112.01129 | 1149 ft | 165 kts | 268° |
| 2026-04-20 04:35 | 33.43101 | -112.02600 | 1767 ft | 184 kts | 267° |
| 2026-04-20 04:35 | 33.43065 | -112.04207 | 2426 ft | 202 kts | 264° |
| 2026-04-20 04:36 | 33.42849 | -112.07660 | 3780 ft | 225 kts | 250° |
| 2026-04-20 04:36 | 33.42241 | -112.09450 | 4275 ft | 240 kts | 244° |
| 2026-04-20 04:36 | 33.41624 | -112.11345 | 4977 ft | 249 kts | 246° |
| 2026-04-20 04:37 | 33.41014 | -112.13308 | 5792 ft | 252 kts | 247° |
| 2026-04-20 04:37 | 33.40384 | -112.15348 | 6370 ft | 273 kts | 247° |
| 2026-04-20 04:37 | 33.39713 | -112.17516 | 7212 ft | 280 kts | 248° |
| 2026-04-20 04:37 | 33.39163 | -112.19780 | 7698 ft | 286 kts | 264° |
| 2026-04-20 04:38 | 33.39324 | -112.22154 | 8006 ft | 292 kts | 277° |
| 2026-04-20 04:38 | 33.39677 | -112.24586 | 8339 ft | 300 kts | 279° |
| 2026-04-20 04:38 | 33.40066 | -112.27039 | 9408 ft | 300 kts | 279° |
| 2026-04-20 04:38 | 33.40456 | -112.29509 | 10328 ft | 305 kts | 279° |
| 2026-04-20 04:39 | 33.40857 | -112.32093 | 10746 ft | 330 kts | 279° |
| 2026-04-20 04:39 | 33.41282 | -112.34874 | 11256 ft | 346 kts | 279° |
| 2026-04-20 04:39 | 33.41717 | -112.37737 | 12064 ft | 353 kts | 279° |
| 2026-04-20 04:39 | 33.42154 | -112.40649 | 12939 ft | 358 kts | 279° |
| 2026-04-20 04:40 | 33.42593 | -112.43603 | 13813 ft | 363 kts | 279° |
| 2026-04-20 04:40 | 33.43035 | -112.46595 | 14696 ft | 365 kts | 278° |
| 2026-04-20 04:40 | 33.43474 | -112.49572 | 15777 ft | 363 kts | 278° |
| 2026-04-20 04:40 | 33.43912 | -112.52558 | 16698 ft | 366 kts | 278° |
| 2026-04-20 04:41 | 33.44356 | -112.55587 | 17542 ft | 372 kts | 277° |
| 2026-04-20 04:41 | 33.44805 | -112.58661 | 18394 ft | 376 kts | 277° |
| 2026-04-20 04:41 | 33.45163 | -112.61772 | 19149 ft | 378 kts | 271° |
| 2026-04-20 04:41 | 33.45225 | -112.64932 | 19900 ft | 381 kts | 267° |
| 2026-04-20 04:42 | 33.45194 | -112.68119 | 20636 ft | 386 kts | 267° |
| 2026-04-20 04:42 | 33.45181 | -112.71360 | 21360 ft | 391 kts | 268° |
| 2026-04-20 04:42 | 33.45203 | -112.74637 | 22081 ft | 395 kts | 269° |
| 2026-04-20 04:42 | 33.45243 | -112.77942 | 22797 ft | 400 kts | 269° |
| 2026-04-20 04:43 | 33.45621 | -112.81268 | 23403 ft | 410 kts | 288° |
| 2026-04-20 04:43 | 33.46703 | -112.84447 | 23995 ft | 414 kts | 292° |
| 2026-04-20 04:43 | 33.47835 | -112.87574 | 24612 ft | 416 kts | 292° |
| 2026-04-20 04:43 | 33.48990 | -112.90760 | 25211 ft | 419 kts | 292° |
| 2026-04-20 04:44 | 33.50146 | -112.93974 | 25780 ft | 422 kts | 291° |
| 2026-04-20 04:44 | 33.51303 | -112.97224 | 26333 ft | 425 kts | 291° |
| 2026-04-20 04:44 | 33.52474 | -113.00543 | 26890 ft | 429 kts | 291° |
| 2026-04-20 04:44 | 33.53616 | -113.03802 | 27435 ft | 431 kts | 291° |
| 2026-04-20 04:45 | 33.54778 | -113.07129 | 27984 ft | 434 kts | 291° |
| 2026-04-20 04:45 | 33.55945 | -113.10479 | 28518 ft | 437 kts | 291° |
| 2026-04-20 04:45 | 33.57121 | -113.13858 | 29007 ft | 441 kts | 291° |
| 2026-04-20 04:45 | 33.58306 | -113.17269 | 29490 ft | 445 kts | 291° |
| 2026-04-20 04:46 | 33.59498 | -113.20701 | 29961 ft | 448 kts | 291° |
| 2026-04-20 04:46 | 33.60699 | -113.24163 | 30368 ft | 451 kts | 291° |
| 2026-04-20 04:46 | 33.61906 | -113.27642 | 30778 ft | 452 kts | 291° |
| 2026-04-20 04:46 | 33.63115 | -113.31134 | 31178 ft | 454 kts | 290° |
| 2026-04-20 04:47 | 33.64330 | -113.34645 | 31580 ft | 456 kts | 290° |
| 2026-04-20 04:47 | 33.65544 | -113.38157 | 32075 ft | 455 kts | 290° |
| 2026-04-20 04:47 | 33.66750 | -113.41649 | 32644 ft | 451 kts | 290° |
| 2026-04-20 04:47 | 33.67945 | -113.45116 | 33232 ft | 448 kts | 290° |
| 2026-04-20 04:48 | 33.69132 | -113.48560 | 33739 ft | 446 kts | 290° |
| 2026-04-20 04:48 | 33.70315 | -113.52000 | 34095 ft | 446 kts | 290° |
| 2026-04-20 04:48 | 33.71497 | -113.55440 | 34490 ft | 444 kts | 289° |
| 2026-04-20 04:48 | 33.72671 | -113.58859 | 34962 ft | 440 kts | 289° |
| 2026-04-20 04:49 | 33.73831 | -113.62242 | 35430 ft | 436 kts | 289° |
| 2026-04-20 04:49 | 33.74983 | -113.65603 | 35805 ft | 435 kts | 288° |
| 2026-04-20 04:49 | 33.76139 | -113.68988 | 35826 ft | 441 kts | 288° |
| 2026-04-20 04:50 | 33.78500 | -113.75906 | 35856 ft | 453 kts | 288° |
| 2026-04-20 04:50 | 33.80897 | -113.82934 | 35846 ft | 453 kts | 288° |
| 2026-04-20 04:51 | 33.83269 | -113.89937 | 35850 ft | 451 kts | 288° |
| 2026-04-20 04:51 | 33.85627 | -113.96924 | 35840 ft | 450 kts | 288° |
| 2026-04-20 04:52 | 33.87980 | -114.03904 | 35838 ft | 450 kts | 288° |
| 2026-04-20 04:52 | 33.90321 | -114.10874 | 35837 ft | 449 kts | 288° |
| 2026-04-20 04:53 | 33.91679 | -114.16912 | 35834 ft | 445 kts | 278° |
| 2026-04-20 04:53 | 33.92816 | -114.24228 | 35827 ft | 445 kts | 277° |
| 2026-04-20 04:54 | 33.93957 | -114.31558 | 35833 ft | 446 kts | 278° |
| 2026-04-20 04:54 | 33.95165 | -114.38892 | 35844 ft | 447 kts | 279° |
| 2026-04-20 04:55 | 33.96400 | -114.46233 | 35831 ft | 447 kts | 279° |
| 2026-04-20 04:55 | 33.97636 | -114.53576 | 35825 ft | 447 kts | 278° |
| 2026-04-20 04:56 | 33.98864 | -114.60920 | 35830 ft | 447 kts | 278° |
| 2026-04-20 04:56 | 34.00087 | -114.68268 | 35833 ft | 447 kts | 278° |
| 2026-04-20 04:57 | 34.01307 | -114.75625 | 35830 ft | 447 kts | 278° |
| 2026-04-20 04:57 | 34.02521 | -114.82980 | 35842 ft | 447 kts | 278° |
| 2026-04-20 04:58 | 34.03730 | -114.90330 | 35842 ft | 447 kts | 278° |
| 2026-04-20 04:58 | 34.04935 | -114.97680 | 35840 ft | 447 kts | 278° |
| 2026-04-20 04:59 | 34.06134 | -115.05026 | 35857 ft | 446 kts | 279° |
| 2026-04-20 04:59 | 34.07327 | -115.12348 | 35851 ft | 444 kts | 279° |
| 2026-04-20 05:00 | 34.08510 | -115.19645 | 35844 ft | 443 kts | 279° |
| 2026-04-20 05:00 | 34.09686 | -115.26930 | 35860 ft | 442 kts | 279° |
| 2026-04-20 05:01 | 34.10857 | -115.34202 | 35858 ft | 441 kts | 279° |
| 2026-04-20 05:01 | 34.12021 | -115.41464 | 35861 ft | 440 kts | 279° |
| 2026-04-20 05:02 | 34.13178 | -115.48710 | 35862 ft | 439 kts | 279° |
| 2026-04-20 05:02 | 34.14328 | -115.55948 | 35876 ft | 439 kts | 279° |
| 2026-04-20 05:03 | 34.15475 | -115.63184 | 35870 ft | 439 kts | 279° |
| 2026-04-20 05:03 | 34.16348 | -115.70452 | 35863 ft | 438 kts | 266° |
| 2026-04-20 05:04 | 34.15601 | -115.77740 | 35908 ft | 437 kts | 263° |
| 2026-04-20 05:04 | 34.14837 | -115.85024 | 35925 ft | 438 kts | 263° |
| 2026-04-20 05:05 | 34.14123 | -115.92322 | 35951 ft | 438 kts | 264° |
| 2026-04-20 05:05 | 34.13413 | -115.99621 | 35974 ft | 438 kts | 264° |
| 2026-04-20 05:06 | 34.12698 | -116.06913 | 35970 ft | 434 kts | 264° |
| 2026-04-20 05:06 | 34.12348 | -116.10466 | 35872 ft | 420 kts | 264° |
| 2026-04-20 05:06 | 34.12008 | -116.13913 | 35673 ft | 408 kts | 264° |
| 2026-04-20 05:06 | 34.11675 | -116.17283 | 35370 ft | 401 kts | 264° |
| 2026-04-20 05:07 | 34.11346 | -116.20605 | 34827 ft | 399 kts | 264° |
| 2026-04-20 05:07 | 34.11014 | -116.23957 | 34119 ft | 404 kts | 264° |
| 2026-04-20 05:07 | 34.10678 | -116.27336 | 33272 ft | 407 kts | 265° |
| 2026-04-20 05:07 | 34.10337 | -116.30736 | 32497 ft | 410 kts | 265° |
| 2026-04-20 05:08 | 34.09979 | -116.34154 | 31739 ft | 412 kts | 265° |
| 2026-04-20 05:08 | 34.09610 | -116.37588 | 31005 ft | 414 kts | 265° |
| 2026-04-20 05:08 | 34.09238 | -116.41032 | 30269 ft | 415 kts | 265° |
| 2026-04-20 05:08 | 34.08865 | -116.44487 | 29506 ft | 416 kts | 265° |
| 2026-04-20 05:09 | 34.08492 | -116.47945 | 28685 ft | 415 kts | 264° |
| 2026-04-20 05:09 | 34.08120 | -116.51401 | 27893 ft | 415 kts | 264° |
| 2026-04-20 05:09 | 34.07747 | -116.54853 | 27118 ft | 415 kts | 264° |
| 2026-04-20 05:09 | 34.07374 | -116.58300 | 26370 ft | 415 kts | 263° |
| 2026-04-20 05:10 | 34.07020 | -116.61763 | 25634 ft | 416 kts | 264° |
| 2026-04-20 05:10 | 34.06698 | -116.65229 | 24940 ft | 416 kts | 264° |
| 2026-04-20 05:10 | 34.06386 | -116.68699 | 24397 ft | 415 kts | 264° |
| 2026-04-20 05:10 | 34.06070 | -116.72195 | 24251 ft | 420 kts | 264° |
| 2026-04-20 05:11 | 34.05756 | -116.75618 | 24081 ft | 403 kts | 263° |
| 2026-04-20 05:11 | 34.05449 | -116.78920 | 23840 ft | 389 kts | 263° |
| 2026-04-20 05:11 | 34.05149 | -116.82128 | 23612 ft | 381 kts | 263° |
| 2026-04-20 05:11 | 34.04850 | -116.85300 | 23287 ft | 383 kts | 263° |
| 2026-04-20 05:12 | 34.04540 | -116.88569 | 22856 ft | 404 kts | 263° |
| 2026-04-20 05:12 | 34.04164 | -116.91967 | 22231 ft | 412 kts | 261° |
| 2026-04-20 05:12 | 34.03705 | -116.95363 | 21697 ft | 408 kts | 259° |
| 2026-04-20 05:12 | 34.03245 | -116.98725 | 21181 ft | 405 kts | 259° |
| 2026-04-20 05:13 | 34.02801 | -117.02061 | 20685 ft | 401 kts | 259° |
| 2026-04-20 05:13 | 34.02379 | -117.05377 | 20148 ft | 400 kts | 260° |
| 2026-04-20 05:13 | 34.01988 | -117.08686 | 19634 ft | 398 kts | 260° |
| 2026-04-20 05:13 | 34.01607 | -117.11977 | 19146 ft | 396 kts | 260° |
| 2026-04-20 05:14 | 34.01224 | -117.15260 | 18645 ft | 395 kts | 260° |
| 2026-04-20 05:14 | 34.00837 | -117.18532 | 18116 ft | 394 kts | 260° |
| 2026-04-20 05:14 | 34.00449 | -117.21790 | 17631 ft | 392 kts | 260° |
| 2026-04-20 05:14 | 34.00062 | -117.25026 | 17019 ft | 388 kts | 260° |
| 2026-04-20 05:15 | 33.99680 | -117.28209 | 16482 ft | 379 kts | 260° |
| 2026-04-20 05:15 | 33.99307 | -117.31318 | 15960 ft | 368 kts | 259° |
| 2026-04-20 05:15 | 33.98955 | -117.34311 | 15474 ft | 356 kts | 259° |
| 2026-04-20 05:15 | 33.98611 | -117.37244 | 15017 ft | 351 kts | 259° |
| 2026-04-20 05:16 | 33.98272 | -117.40132 | 14567 ft | 346 kts | 259° |
| 2026-04-20 05:16 | 33.97934 | -117.42998 | 14155 ft | 344 kts | 259° |
| 2026-04-20 05:16 | 33.97594 | -117.45866 | 13811 ft | 351 kts | 259° |
| 2026-04-20 05:16 | 33.97249 | -117.48817 | 13202 ft | 354 kts | 260° |
| 2026-04-20 05:17 | 33.97122 | -117.51765 | 12680 ft | 350 kts | 267° |
| 2026-04-20 05:17 | 33.97169 | -117.54671 | 12217 ft | 344 kts | 269° |
| 2026-04-20 05:17 | 33.97257 | -117.57524 | 11766 ft | 338 kts | 269° |
| 2026-04-20 05:17 | 33.97343 | -117.60329 | 11317 ft | 333 kts | 269° |
| 2026-04-20 05:18 | 33.97416 | -117.63076 | 10869 ft | 321 kts | 269° |
| 2026-04-20 05:18 | 33.97475 | -117.65706 | 10452 ft | 308 kts | 268° |
| 2026-04-20 05:18 | 33.97523 | -117.68232 | 10099 ft | 296 kts | 268° |
| 2026-04-20 05:18 | 33.97564 | -117.70695 | 9863 ft | 294 kts | 268° |
| 2026-04-20 05:19 | 33.97602 | -117.73086 | 9545 ft | 284 kts | 268° |
| 2026-04-20 05:19 | 33.97635 | -117.75474 | 9114 ft | 284 kts | 268° |
| 2026-04-20 05:19 | 33.97667 | -117.77854 | 8703 ft | 283 kts | 268° |
| 2026-04-20 05:19 | 33.97699 | -117.80218 | 8322 ft | 281 kts | 268° |
| 2026-04-20 05:20 | 33.97730 | -117.82567 | 7948 ft | 280 kts | 268° |
| 2026-04-20 05:20 | 33.97760 | -117.84906 | 7577 ft | 278 kts | 268° |
| 2026-04-20 05:20 | 33.97790 | -117.87242 | 7206 ft | 277 kts | 268° |
| 2026-04-20 05:20 | 33.97819 | -117.89557 | 6849 ft | 276 kts | 268° |
| 2026-04-20 05:21 | 33.98084 | -117.91821 | 6489 ft | 278 kts | 281° |
| 2026-04-20 05:21 | 33.98545 | -117.94076 | 6106 ft | 277 kts | 281° |
| 2026-04-20 05:21 | 33.98996 | -117.96300 | 5993 ft | 271 kts | 282° |
| 2026-04-20 05:21 | 33.99438 | -117.98487 | 5954 ft | 258 kts | 281° |
| 2026-04-20 05:22 | 33.99853 | -118.00526 | 5941 ft | 244 kts | 281° |
| 2026-04-20 05:22 | 34.00249 | -118.02455 | 5937 ft | 230 kts | 281° |
| 2026-04-20 05:22 | 34.00617 | -118.04267 | 5935 ft | 216 kts | 277° |
| 2026-04-20 05:22 | 34.00460 | -118.05998 | 5772 ft | 212 kts | 239° |
| 2026-04-20 05:23 | 33.99717 | -118.07589 | 5481 ft | 227 kts | 240° |
| 2026-04-20 05:23 | 33.99022 | -118.09354 | 5158 ft | 237 kts | 244° |
| 2026-04-20 05:23 | 33.98379 | -118.11195 | 4813 ft | 239 kts | 245° |
| 2026-04-20 05:23 | 33.97851 | -118.13091 | 4438 ft | 242 kts | 259° |
| 2026-04-20 05:24 | 33.97668 | -118.15110 | 4078 ft | 239 kts | 263° |
| 2026-04-20 05:24 | 33.97514 | -118.17026 | 4053 ft | 226 kts | 262° |
| 2026-04-20 05:24 | 33.97353 | -118.18859 | 4000 ft | 212 kts | 262° |
| 2026-04-20 05:24 | 33.97194 | -118.20556 | 3941 ft | 197 kts | 261° |
| 2026-04-20 05:25 | 33.97039 | -118.22144 | 3832 ft | 184 kts | 260° |
| 2026-04-20 05:25 | 33.96886 | -118.23636 | 3706 ft | 172 kts | 259° |
| 2026-04-20 05:25 | 33.96737 | -118.25056 | 3439 ft | 169 kts | 260° |
| 2026-04-20 05:25 | 33.96598 | -118.26451 | 3149 ft | 167 kts | 261° |
| 2026-04-20 05:26 | 33.96466 | -118.27831 | 2868 ft | 164 kts | 262° |
| 2026-04-20 05:26 | 33.96332 | -118.29176 | 2619 ft | 156 kts | 262° |
| 2026-04-20 05:26 | 33.96206 | -118.30479 | 2108 ft | 161 kts | 262° |
| 2026-04-20 05:26 | 33.96069 | -118.31832 | 1553 ft | 160 kts | 262° |
| 2026-04-20 05:27 | 33.95939 | -118.33095 | 1346 ft | 143 kts | 262° |
| 2026-04-20 05:27 | 33.95820 | -118.34239 | 1148 ft | 133 kts | 261° |
| 2026-04-20 05:27 | 33.95707 | -118.35331 | 990 ft | 131 kts | 262° |
| 2026-04-20 05:27 | 33.95594 | -118.36431 | 817 ft | 132 kts | 261° |
| 2026-04-20 05:28 | 33.95479 | -118.37525 | 628 ft | 132 kts | 261° |
| 2026-04-20 05:28 | 33.95370 | -118.38607 | 385 ft | 128 kts | 261° |
| 2026-04-20 05:28 | 33.95263 | -118.39657 | 214 ft | 124 kts | 262° |
| 2026-04-20 05:28 | 33.95158 | -118.40676 | 95 ft | 118 kts | 262° |
| 2026-04-20 05:29 | 33.95080 | -118.41459 | 93 ft | 64 kts | 262° |
| 2026-04-20 05:29 | 33.95042 | -118.41838 | 93 ft | 40 kts | 262° |
| 2026-04-20 05:29 | 33.94986 | -118.42120 | 93 ft | 30 kts | 240° |
| 2026-04-20 05:29 | 33.94885 | -118.42255 | 94 ft | 11 kts | 217° |
| 2026-04-20 05:30 | 33.94873 | -118.42263 | 95 ft | 0 kts | 206° |
| 2026-04-20 05:31 | 33.94864 | -118.42268 | 95 ft | 4 kts | 203° |
| 2026-04-20 05:31 | 33.94798 | -118.42281 | 95 ft | 15 kts | 180° |
| 2026-04-20 05:31 | 33.94689 | -118.42230 | 93 ft | 18 kts | 106° |
| 2026-04-20 05:32 | 33.94700 | -118.42072 | 92 ft | 21 kts | 83° |
| 2026-04-20 05:32 | 33.94718 | -118.41892 | 93 ft | 23 kts | 82° |
| 2026-04-20 05:32 | 33.94741 | -118.41719 | 92 ft | 19 kts | 91° |
| 2026-04-20 05:32 | 33.94751 | -118.41558 | 93 ft | 19 kts | 83° |
| 2026-04-20 05:33 | 33.94773 | -118.41404 | 94 ft | 18 kts | 71° |
| 2026-04-20 05:33 | 33.94794 | -118.41263 | 93 ft | 17 kts | 82° |
| 2026-04-20 05:33 | 33.94811 | -118.41104 | 94 ft | 21 kts | 83° |
| 2026-04-20 05:33 | 33.94831 | -118.40905 | 96 ft | 26 kts | 83° |
| 2026-04-20 05:34 | 33.94854 | -118.40682 | 93 ft | 28 kts | 83° |
| 2026-04-20 05:34 | 33.94878 | -118.40462 | 96 ft | 24 kts | 83° |
| 2026-04-20 05:34 | 33.94907 | -118.40105 | 92 ft | 13 kts | 108° |
| 2026-04-20 05:35 | 33.94841 | -118.40027 | 92 ft | 15 kts | 132° |
| 2026-04-20 05:35 | 33.94751 | -118.40010 | 92 ft | 11 kts | 192° |
| 2026-04-20 05:35 | 33.94731 | -118.40049 | 92 ft | 1 kts | 264° |
| 2026-04-20 05:35 | 33.94730 | -118.40059 | 95 ft | 2 kts | 264° |
| 2026-04-20 05:36 | 33.94729 | -118.40066 | 95 ft | 0 kts | 264° |